Time;durP1;ratioP1;P1;durP2;ratioP2;P2;SDS_P1;SDS_P2;PMS_P1;PMS_P2;Temp;Humidity;BMP_temperature;BMP_pressure;BME280_temperature;BME280_humidity;BME280_pressure;Samples;Min_cycle;Max_cycle;Signal;HPM_P1;HPM_P2
2022/01/26 00:06:27;;;;;;;42.73;18.90;;;4.50;99.90;;;;;;4990977;28;20483;-63
2022/01/26 00:08:57;;;;;;;43.63;18.27;;;4.50;99.90;;;;;;4991403;28;20472;-63
2022/01/26 00:11:27;;;;;;;41.03;18.27;;;4.50;99.90;;;;;;4991232;28;20527;-64
2022/01/26 00:13:55;;;;;;;43.23;17.50;;;4.50;99.90;;;;;;4992125;28;20531;-63
2022/01/26 00:16:26;;;;;;;43.20;18.60;;;4.50;99.90;;;;;;5006481;28;21552;-64
2022/01/26 00:18:59;;;;;;;40.20;17.67;;;4.50;99.90;;;;;;4991147;28;20472;-63
2022/01/26 00:21:35;;;;;;;42.50;17.63;;;4.50;99.90;;;;;;4992913;28;20551;-64
2022/01/26 00:29:36;;;;;;;40.93;18.53;;;4.60;99.90;;;;;;4997425;28;20477;-63
2022/01/26 00:40:35;;;;;;;44.43;18.90;;;4.50;99.90;;;;;;4997624;28;21026;-63
2022/01/26 00:43:13;;;;;;;44.57;19.97;;;4.50;99.90;;;;;;4997686;28;20888;-63
2022/01/26 00:45:41;;;;;;;44.10;18.50;;;4.60;99.90;;;;;;4997402;28;20484;-63
2022/01/26 00:48:11;;;;;;;46.60;19.93;;;4.70;99.90;;;;;;4997669;28;20464;-63
2022/01/26 00:50:49;;;;;;;46.77;20.13;;;4.60;99.90;;;;;;4997726;28;20475;-63
2022/01/26 00:53:17;;;;;;;43.63;19.33;;;4.60;99.90;;;;;;4997207;28;20469;-63
2022/01/26 00:55:47;;;;;;;48.10;19.23;;;4.50;99.90;;;;;;4997344;28;20472;-64
2022/01/26 00:58:15;;;;;;;42.80;18.07;;;4.50;99.90;;;;;;4996679;28;20469;-63
2022/01/26 01:00:43;;;;;;;51.53;20.87;;;4.60;99.90;;;;;;4997585;28;20476;-64
2022/01/26 01:03:12;;;;;;;43.47;20.03;;;4.60;99.90;;;;;;4997823;28;20884;-63
2022/01/26 01:05:48;;;;;;;44.40;20.63;;;4.60;99.90;;;;;;4997098;28;20494;-63
2022/01/26 01:08:19;;;;;;;45.30;20.93;;;4.60;99.90;;;;;;4996985;28;20588;-63
2022/01/26 01:10:50;;;;;;;43.40;19.70;;;4.50;99.90;;;;;;4997414;28;21075;-63
2022/01/26 01:13:22;;;;;;;43.53;20.30;;;4.50;99.90;;;;;;4996993;28;20564;-63
2022/01/26 01:15:52;;;;;;;50.20;21.63;;;4.50;99.90;;;;;;5014359;28;20464;-63
2022/01/26 01:18:23;;;;;;;42.77;19.33;;;4.50;99.90;;;;;;4997120;28;20518;-63
2022/01/26 01:21:27;;;;;;;47.10;19.90;;;4.50;99.90;;;;;;4997302;28;20481;-63
2022/01/26 01:24:16;;;;;;;42.37;19.63;;;4.50;99.90;;;;;;4996928;28;20476;-63
2022/01/26 01:27:06;;;;;;;44.60;20.20;;;4.60;99.90;;;;;;4996793;28;21084;-64
2022/01/26 01:29:40;;;;;;;42.63;19.37;;;4.60;99.90;;;;;;4997030;28;20519;-63
2022/01/26 01:32:14;;;;;;;47.67;20.63;;;4.60;99.90;;;;;;4997433;28;20575;-63
2022/01/26 01:34:42;;;;;;;49.73;20.40;;;4.60;99.90;;;;;;4993038;28;20486;-63
2022/01/26 01:37:15;;;;;;;45.53;20.20;;;4.50;99.90;;;;;;4994088;28;20471;-63
2022/01/26 01:39:44;;;;;;;45.03;21.00;;;4.60;99.90;;;;;;4993943;28;20519;-65
2022/01/26 01:42:13;;;;;;;49.07;21.53;;;4.60;99.90;;;;;;4994564;28;20472;-63
2022/01/26 01:44:41;;;;;;;47.70;21.43;;;4.70;99.90;;;;;;5001453;28;20498;-63
2022/01/26 01:47:10;;;;;;;48.03;21.17;;;4.60;99.90;;;;;;5013783;28;20467;-63
2022/01/26 01:49:38;;;;;;;46.23;21.63;;;4.60;99.90;;;;;;4997269;28;20469;-63
2022/01/26 01:52:12;;;;;;;55.73;23.60;;;4.60;99.90;;;;;;4993832;28;20471;-63
2022/01/26 01:54:44;;;;;;;51.90;21.90;;;4.60;99.90;;;;;;4993683;28;20475;-63
2022/01/26 01:57:21;;;;;;;52.30;22.33;;;4.60;99.90;;;;;;4994284;28;20538;-63
2022/01/26 01:59:49;;;;;;;50.23;21.57;;;4.60;99.90;;;;;;4993506;28;20508;-64
2022/01/26 02:02:17;;;;;;;50.97;21.63;;;4.60;99.90;;;;;;4993703;28;20996;-63
2022/01/26 02:04:45;;;;;;;49.70;22.63;;;4.60;99.90;;;;;;4971362;28;20555;-63
2022/01/26 02:07:14;;;;;;;56.00;24.00;;;4.60;99.90;;;;;;4993229;28;20849;-63
2022/01/26 02:09:42;;;;;;;55.53;24.23;;;4.50;99.90;;;;;;4993182;28;20483;-63
2022/01/26 02:12:20;;;;;;;50.60;23.10;;;4.50;99.90;;;;;;4993319;28;20559;-63
2022/01/26 02:14:52;;;;;;;52.27;22.47;;;4.50;99.90;;;;;;5003330;28;20471;-63
2022/01/26 02:17:37;;;;;;;54.90;24.43;;;4.50;99.90;;;;;;5000913;28;20600;-63
2022/01/26 02:20:37;;;;;;;54.40;23.60;;;4.50;99.90;;;;;;4993165;28;20563;-63
2022/01/26 02:51:27;;;;;;;59.60;23.73;;;4.40;99.90;;;;;;4992637;28;21069;-63
2022/01/26 02:56:55;;;;;;;57.83;23.70;;;4.40;99.90;;;;;;4992807;28;20999;-63
2022/01/26 03:02:37;;;;;;;56.43;23.07;;;4.40;99.90;;;;;;5125625;27;21008;-65
2022/01/26 03:05:09;;;;;;;53.23;24.27;;;4.50;99.90;;;;;;5048030;28;20530;-65
2022/01/26 03:07:42;;;;;;;52.87;22.43;;;4.40;99.90;;;;;;5055842;28;20551;-64
2022/01/26 03:10:19;;;;;;;51.90;23.07;;;4.40;99.90;;;;;;5048035;28;20560;-65
2022/01/26 03:12:53;;;;;;;46.20;20.97;;;4.40;99.90;;;;;;5048755;28;20838;-64
2022/01/26 03:15:25;;;;;;;57.70;23.80;;;4.50;99.90;;;;;;5086595;27;20507;-64
2022/01/26 03:20:42;;;;;;;49.10;20.40;;;4.40;99.90;;;;;;5069418;28;20483;-65
2022/01/26 03:28:47;;;;;;;50.97;22.07;;;4.40;99.90;;;;;;5087272;28;20501;-65
2022/01/26 03:34:09;;;;;;;46.30;21.30;;;4.30;99.90;;;;;;5071306;28;20563;-65
2022/01/26 03:36:46;;;;;;;50.00;20.67;;;4.40;99.90;;;;;;5067690;28;20537;-66
2022/01/26 03:39:18;;;;;;;48.73;20.23;;;4.50;99.90;;;;;;5067107;28;20891;-65
2022/01/26 03:41:50;;;;;;;46.47;19.87;;;4.40;99.90;;;;;;5067092;28;20549;-64
2022/01/26 03:44:19;;;;;;;45.03;20.33;;;4.40;99.90;;;;;;5070744;27;20473;-66
2022/01/26 03:46:49;;;;;;;44.70;19.37;;;4.40;99.90;;;;;;5066924;28;20940;-65
2022/01/26 03:49:18;;;;;;;45.60;19.83;;;4.40;99.90;;;;;;5077746;28;20542;-65
2022/01/26 03:51:47;;;;;;;39.83;18.37;;;4.30;99.90;;;;;;5087236;28;20494;-65
2022/01/26 03:54:16;;;;;;;37.83;17.77;;;4.30;99.90;;;;;;5076828;28;20476;-65
2022/01/26 03:56:45;;;;;;;39.23;17.90;;;4.40;99.90;;;;;;5067245;28;20864;-65
2022/01/26 03:59:13;;;;;;;39.63;17.87;;;4.30;99.90;;;;;;5066946;28;20890;-65
2022/01/26 04:01:42;;;;;;;39.83;17.00;;;4.40;99.90;;;;;;5052870;28;21027;-65
2022/01/26 04:04:10;;;;;;;40.20;17.90;;;4.30;99.90;;;;;;5071850;28;20464;-65
2022/01/26 04:06:40;;;;;;;38.63;16.37;;;4.30;99.90;;;;;;5086858;28;20541;-66
2022/01/26 04:09:10;;;;;;;37.87;17.20;;;4.40;99.90;;;;;;5058822;28;20820;-65
2022/01/26 04:11:42;;;;;;;41.17;17.60;;;4.40;99.90;;;;;;5065529;28;20495;-65
2022/01/26 04:14:13;;;;;;;36.60;17.10;;;4.30;99.90;;;;;;5057745;28;20470;-64
2022/01/26 04:16:42;;;;;;;35.77;16.97;;;4.30;99.90;;;;;;5056890;28;20481;-65
2022/01/26 04:19:11;;;;;;;40.33;17.13;;;4.20;99.90;;;;;;5053168;28;20899;-65
2022/01/26 04:21:53;;;;;;;38.67;17.63;;;4.20;99.90;;;;;;5052996;28;20484;-65
2022/01/26 04:24:25;;;;;;;37.73;17.10;;;4.20;99.90;;;;;;5067091;28;20464;-64
2022/01/26 04:26:58;;;;;;;40.43;18.00;;;4.30;99.90;;;;;;5073384;28;20553;-65
2022/01/26 04:29:28;;;;;;;39.47;18.00;;;4.30;99.90;;;;;;5058494;28;20468;-65
2022/01/26 04:31:57;;;;;;;41.33;18.20;;;4.20;99.90;;;;;;5053196;28;20480;-64
2022/01/26 04:34:26;;;;;;;35.67;16.27;;;4.20;99.90;;;;;;5067454;28;20467;-65
2022/01/26 04:37:01;;;;;;;38.27;16.23;;;4.20;99.90;;;;;;5063737;28;20481;-64
2022/01/26 04:39:34;;;;;;;39.43;16.40;;;4.20;99.90;;;;;;5052701;28;20483;-64
2022/01/26 04:42:07;;;;;;;43.63;19.20;;;4.20;99.90;;;;;;5052656;28;20487;-65
2022/01/26 04:44:40;;;;;;;42.97;18.57;;;4.20;99.90;;;;;;5051991;28;20474;-64
2022/01/26 04:47:08;;;;;;;39.30;18.00;;;4.20;99.90;;;;;;5052669;28;20504;-65
2022/01/26 04:49:36;;;;;;;40.93;18.37;;;4.20;99.90;;;;;;5052437;28;20810;-65
2022/01/26 04:52:07;;;;;;;41.93;18.43;;;4.20;99.90;;;;;;5052812;28;21042;-65
2022/01/26 04:54:35;;;;;;;44.90;18.57;;;4.30;99.90;;;;;;5066778;28;20483;-65
2022/01/26 04:57:03;;;;;;;44.53;18.20;;;4.20;99.90;;;;;;5062303;28;20967;-65
2022/01/26 04:59:31;;;;;;;42.63;18.93;;;4.20;99.90;;;;;;5067634;28;20596;-64
2022/01/26 05:01:59;;;;;;;45.67;19.57;;;4.10;99.90;;;;;;5072701;28;20586;-64
2022/01/26 05:04:28;;;;;;;37.17;17.50;;;4.10;99.90;;;;;;5057481;28;20488;-65
2022/01/26 05:06:56;;;;;;;39.93;18.53;;;4.20;99.90;;;;;;5054736;28;20535;-65
2022/01/26 05:09:25;;;;;;;44.40;17.63;;;4.20;99.90;;;;;;5072241;28;20523;-65
2022/01/26 05:11:55;;;;;;;37.37;16.17;;;4.20;99.90;;;;;;5072312;28;20466;-65
2022/01/26 05:14:23;;;;;;;41.27;18.07;;;4.20;99.90;;;;;;5070688;28;20548;-65
2022/01/26 05:16:51;;;;;;;43.87;18.20;;;4.20;99.90;;;;;;5063643;28;20818;-65
2022/01/26 05:19:19;;;;;;;41.40;19.30;;;4.20;99.90;;;;;;5065618;28;20480;-64
2022/01/26 05:21:48;;;;;;;40.50;17.63;;;4.20;99.90;;;;;;5057838;28;20478;-66
2022/01/26 05:24:16;;;;;;;41.93;17.50;;;4.20;99.90;;;;;;5044337;28;20477;-65
2022/01/26 05:26:45;;;;;;;45.93;19.20;;;4.20;99.90;;;;;;5051904;28;20850;-64
2022/01/26 05:29:14;;;;;;;42.47;18.10;;;4.20;99.90;;;;;;5064538;28;20546;-64
2022/01/26 05:31:42;;;;;;;45.70;19.37;;;4.20;99.90;;;;;;5071894;28;20506;-64
2022/01/26 05:34:10;;;;;;;45.40;19.30;;;4.20;99.90;;;;;;5059404;28;20476;-64
2022/01/26 05:36:38;;;;;;;44.73;19.03;;;4.20;99.90;;;;;;5052053;28;20540;-64
2022/01/26 05:39:06;;;;;;;41.23;17.97;;;4.20;99.90;;;;;;5051694;28;21017;-64
2022/01/26 05:41:34;;;;;;;44.23;18.60;;;4.10;99.90;;;;;;5051575;28;20994;-65
2022/01/26 05:44:04;;;;;;;41.60;18.87;;;4.20;99.90;;;;;;5051195;28;21043;-65
2022/01/26 05:46:38;;;;;;;41.07;17.97;;;4.20;99.90;;;;;;5043432;28;20530;-65
2022/01/26 05:49:06;;;;;;;44.37;18.50;;;4.10;99.90;;;;;;5044504;28;20483;-65
2022/01/26 05:51:35;;;;;;;49.33;20.17;;;4.20;99.90;;;;;;5049886;28;20475;-65
2022/01/26 05:54:05;;;;;;;41.57;18.00;;;4.10;99.90;;;;;;5051418;28;20480;-65
2022/01/26 05:56:33;;;;;;;39.07;17.13;;;4.20;99.90;;;;;;5051765;28;21069;-65
2022/01/26 05:59:01;;;;;;;41.77;18.80;;;4.40;99.90;;;;;;5062328;28;21015;-66
2022/01/26 06:01:31;;;;;;;40.50;17.27;;;4.30;99.90;;;;;;5071217;28;20559;-64
2022/01/26 06:03:59;;;;;;;43.57;19.57;;;4.20;99.90;;;;;;5071390;28;20458;-65
2022/01/26 06:06:28;;;;;;;44.27;17.47;;;4.20;99.90;;;;;;5055923;28;20558;-65
2022/01/26 06:08:56;;;;;;;43.73;19.30;;;4.40;99.90;;;;;;5069784;28;20454;-65
2022/01/26 06:11:24;;;;;;;46.37;18.23;;;4.30;99.90;;;;;;5071046;28;20469;-65
2022/01/26 06:13:52;;;;;;;51.17;19.40;;;4.30;99.90;;;;;;5070909;28;20475;-64
2022/01/26 06:16:20;;;;;;;47.67;19.20;;;4.30;99.90;;;;;;5070382;28;20522;-65
2022/01/26 06:18:49;;;;;;;47.13;18.93;;;4.20;99.90;;;;;;5070705;28;20469;-65
2022/01/26 06:21:18;;;;;;;41.10;17.73;;;4.30;99.90;;;;;;5070935;28;21032;-65
2022/01/26 06:23:46;;;;;;;41.73;18.77;;;4.20;99.90;;;;;;5070122;28;20837;-65
2022/01/26 06:26:14;;;;;;;39.33;17.47;;;4.20;99.90;;;;;;5067884;28;20476;-64
2022/01/26 06:28:42;;;;;;;42.20;18.63;;;4.20;99.90;;;;;;5070319;28;20993;-65
2022/01/26 06:31:14;;;;;;;40.60;17.37;;;4.20;99.90;;;;;;5070613;28;20477;-64
2022/01/26 06:33:44;;;;;;;43.83;18.63;;;4.10;99.90;;;;;;5070828;28;20497;-65
2022/01/26 06:36:16;;;;;;;41.60;17.80;;;4.10;99.90;;;;;;5069033;28;20997;-65
2022/01/26 06:38:46;;;;;;;43.90;18.83;;;4.20;99.90;;;;;;5062361;28;20549;-64
2022/01/26 06:41:22;;;;;;;41.97;18.63;;;4.10;99.90;;;;;;5070685;28;20815;-64
2022/01/26 06:43:56;;;;;;;40.03;16.70;;;4.10;99.90;;;;;;5070585;28;20961;-64
2022/01/26 06:46:31;;;;;;;44.70;19.00;;;4.10;99.90;;;;;;5070431;28;20479;-65
2022/01/26 06:49:28;;;;;;;43.27;18.27;;;4.00;99.90;;;;;;5070656;28;20483;-64
2022/01/26 06:51:55;;;;;;;43.30;17.60;;;4.10;99.90;;;;;;5063973;28;20542;-65
2022/01/26 06:54:24;;;;;;;42.53;17.97;;;4.10;99.90;;;;;;5070574;28;20470;-65
2022/01/26 06:56:53;;;;;;;43.03;18.90;;;4.10;99.90;;;;;;5070293;28;20472;-65
2022/01/26 06:59:23;;;;;;;40.37;17.47;;;4.10;99.90;;;;;;5070405;28;20503;-64
2022/01/26 07:01:51;;;;;;;43.57;18.40;;;4.10;99.90;;;;;;5070207;28;20844;-65
2022/01/26 07:04:20;;;;;;;38.70;17.60;;;4.10;99.90;;;;;;5070283;28;20982;-64
2022/01/26 07:06:48;;;;;;;45.20;18.37;;;4.10;99.90;;;;;;5070357;28;20461;-64
2022/01/26 07:09:17;;;;;;;37.97;17.57;;;4.10;99.90;;;;;;5070396;28;20531;-65
2022/01/26 07:11:46;;;;;;;43.20;17.77;;;4.00;99.90;;;;;;5070282;28;20810;-65
2022/01/26 07:14:25;;;;;;;36.30;17.27;;;4.10;99.90;;;;;;5070429;28;20561;-64
2022/01/26 07:19:53;;;;;;;39.90;17.97;;;4.00;99.90;;;;;;5068595;28;20819;-64
2022/01/26 07:22:21;;;;;;;37.27;17.27;;;4.00;99.90;;;;;;5070228;28;20547;-64
2022/01/26 07:24:50;;;;;;;43.80;19.27;;;4.00;99.90;;;;;;5070262;28;20488;-64
2022/01/26 07:27:18;;;;;;;38.03;17.10;;;3.90;99.90;;;;;;5070313;28;20837;-64
2022/01/26 07:29:50;;;;;;;43.60;18.83;;;4.00;99.90;;;;;;5069930;28;20465;-64
2022/01/26 07:32:18;;;;;;;39.77;18.23;;;4.00;99.90;;;;;;5070201;28;20559;-65
2022/01/26 07:34:46;;;;;;;43.20;19.27;;;3.90;99.90;;;;;;5070017;28;20494;-64
2022/01/26 07:37:16;;;;;;;48.03;19.30;;;3.90;99.90;;;;;;5069971;28;20480;-64
2022/01/26 07:39:48;;;;;;;45.77;18.23;;;3.90;99.90;;;;;;5069956;28;20469;-65
2022/01/26 07:42:18;;;;;;;39.87;18.70;;;3.90;99.90;;;;;;5070218;28;20550;-65
2022/01/26 07:44:46;;;;;;;42.50;19.37;;;4.00;99.90;;;;;;5069909;28;20875;-64
2022/01/26 07:47:14;;;;;;;41.53;19.50;;;4.00;99.90;;;;;;5070633;28;21055;-66
2022/01/26 07:49:42;;;;;;;46.03;20.03;;;4.00;99.90;;;;;;5073604;28;20991;-65
2022/01/26 07:52:10;;;;;;;45.40;19.90;;;4.00;99.90;;;;;;5073826;28;20496;-64
2022/01/26 07:54:38;;;;;;;45.03;20.27;;;4.00;99.90;;;;;;5073468;28;20521;-65
2022/01/26 07:57:07;;;;;;;47.03;19.53;;;3.90;99.90;;;;;;5073571;28;20556;-64
2022/01/26 07:59:37;;;;;;;47.37;21.03;;;3.90;99.90;;;;;;5073365;28;20859;-65
2022/01/26 08:02:05;;;;;;;47.97;21.27;;;3.90;99.90;;;;;;5073028;28;20473;-65
2022/01/26 08:04:34;;;;;;;49.43;21.13;;;3.90;99.90;;;;;;5073248;28;20897;-65
2022/01/26 08:07:02;;;;;;;51.40;21.20;;;3.90;99.90;;;;;;5073451;28;20475;-65
2022/01/26 08:09:30;;;;;;;48.93;20.27;;;3.90;99.90;;;;;;5072310;28;20469;-66
2022/01/26 08:11:58;;;;;;;47.03;20.40;;;3.80;99.90;;;;;;5062175;28;20546;-65
2022/01/26 08:14:27;;;;;;;46.40;20.40;;;3.80;99.90;;;;;;5073118;28;20469;-65
2022/01/26 08:16:56;;;;;;;44.93;19.73;;;3.80;99.90;;;;;;5072789;28;20555;-64
2022/01/26 08:19:24;;;;;;;48.30;21.73;;;3.80;99.90;;;;;;5073104;28;20810;-65
2022/01/26 08:21:58;;;;;;;48.20;20.77;;;3.80;99.90;;;;;;5073422;28;20465;-64
2022/01/26 08:24:26;;;;;;;53.13;22.20;;;3.80;99.90;;;;;;5072938;28;20487;-64
2022/01/26 08:26:56;;;;;;;47.07;20.53;;;3.80;99.90;;;;;;5072861;28;20537;-64
2022/01/26 08:29:28;;;;;;;49.40;22.03;;;3.80;99.90;;;;;;5073018;28;20490;-65
2022/01/26 08:31:58;;;;;;;48.93;22.00;;;3.80;99.90;;;;;;5073179;28;20469;-65
2022/01/26 08:34:26;;;;;;;50.13;21.33;;;3.80;99.90;;;;;;5073027;28;20477;-64
2022/01/26 08:36:54;;;;;;;47.17;20.83;;;3.80;99.90;;;;;;5072622;28;20471;-64
2022/01/26 08:39:22;;;;;;;52.90;22.80;;;3.80;99.90;;;;;;5072960;28;20469;-64
2022/01/26 08:41:50;;;;;;;46.67;21.03;;;3.80;99.90;;;;;;5073174;28;20468;-65
2022/01/26 08:44:18;;;;;;;47.17;22.20;;;3.80;99.90;;;;;;5072855;28;21014;-65
2022/01/26 08:46:47;;;;;;;48.17;21.97;;;3.80;99.90;;;;;;5072531;28;20471;-64
2022/01/26 08:49:16;;;;;;;52.83;22.63;;;3.80;99.90;;;;;;5072531;28;20980;-64
2022/01/26 08:51:44;;;;;;;45.10;20.13;;;3.80;99.90;;;;;;5072694;28;20474;-64
2022/01/26 08:54:13;;;;;;;51.03;22.17;;;3.80;99.90;;;;;;5072539;28;20527;-64
2022/01/26 08:56:45;;;;;;;52.40;22.63;;;3.80;99.90;;;;;;5071782;28;20464;-65
2022/01/26 08:59:13;;;;;;;56.30;22.77;;;3.80;99.90;;;;;;5065378;28;20965;-64
2022/01/26 09:01:42;;;;;;;49.13;22.33;;;3.80;99.90;;;;;;5072332;28;20844;-64
2022/01/26 09:04:10;;;;;;;47.77;22.17;;;3.70;99.90;;;;;;5072245;28;21020;-64
2022/01/26 09:06:51;;;;;;;53.60;22.20;;;3.80;99.90;;;;;;5072368;28;20502;-65
2022/01/26 09:09:20;;;;;;;48.80;21.37;;;3.80;99.90;;;;;;5065979;28;20584;-64
2022/01/26 09:11:50;;;;;;;54.50;21.93;;;3.80;99.90;;;;;;5072305;28;20499;-64
2022/01/26 09:14:21;;;;;;;54.47;22.90;;;3.80;99.90;;;;;;5072140;28;20491;-64
2022/01/26 09:16:53;;;;;;;56.23;24.47;;;3.70;99.90;;;;;;5071734;28;20508;-64
2022/01/26 09:19:27;;;;;;;52.67;23.70;;;3.70;99.90;;;;;;5072113;28;20477;-64
2022/01/26 09:21:59;;;;;;;49.57;21.23;;;3.70;99.90;;;;;;5072337;28;20537;-65
2022/01/26 09:24:28;;;;;;;54.00;22.83;;;3.70;99.90;;;;;;5071974;28;20525;-65
2022/01/26 09:26:57;;;;;;;54.60;24.17;;;3.70;99.90;;;;;;5072344;28;20466;-64
2022/01/26 09:29:25;;;;;;;57.90;28.50;;;3.70;99.90;;;;;;5070901;28;20460;-64
2022/01/26 09:31:53;;;;;;;66.83;34.60;;;3.70;99.90;;;;;;5070950;28;20461;-62
2022/01/26 09:34:24;;;;;;;57.10;28.77;;;3.70;99.90;;;;;;5071572;28;20861;-62
2022/01/26 09:36:53;;;;;;;56.37;27.60;;;3.70;99.90;;;;;;5071812;28;20456;-62
2022/01/26 09:39:23;;;;;;;60.20;26.20;;;3.60;99.90;;;;;;5071162;28;20475;-62
2022/01/26 09:41:52;;;;;;;55.43;25.67;;;3.60;99.90;;;;;;5070941;28;20550;-62
2022/01/26 09:44:22;;;;;;;50.23;24.30;;;3.60;99.90;;;;;;5066738;28;20473;-62
2022/01/26 09:46:51;;;;;;;51.83;24.60;;;3.70;99.90;;;;;;5064061;28;21514;-62
2022/01/26 09:49:19;;;;;;;49.27;22.83;;;3.70;99.90;;;;;;5062628;28;20476;-62
2022/01/26 09:51:50;;;;;;;52.53;22.93;;;3.70;99.90;;;;;;5063613;28;20846;-62
2022/01/26 09:54:20;;;;;;;45.90;21.50;;;3.70;99.90;;;;;;5063303;28;20982;-62
2022/01/26 09:56:52;;;;;;;47.73;21.03;;;3.60;99.90;;;;;;5063490;28;20484;-62
2022/01/26 09:59:20;;;;;;;50.00;20.30;;;3.70;99.90;;;;;;5062654;28;22851;-62
2022/01/26 10:01:50;;;;;;;46.60;20.67;;;3.70;99.90;;;;;;5064740;28;20481;-62
2022/01/26 10:04:23;;;;;;;53.53;22.27;;;3.70;99.90;;;;;;5065135;28;20890;-62
2022/01/26 10:07:05;;;;;;;45.37;19.90;;;3.70;99.90;;;;;;5065703;28;20465;-62
2022/01/26 10:09:52;;;;;;;49.43;21.50;;;3.70;99.90;;;;;;5064067;28;20491;-62
2022/01/26 10:15:32;;;;;;;51.20;21.70;;;3.70;99.90;;;;;;5064877;28;20572;-62
2022/01/26 10:18:10;;;;;;;47.63;20.97;;;3.60;99.90;;;;;;5064872;28;20514;-63
2022/01/26 10:20:40;;;;;;;45.23;20.20;;;3.60;99.90;;;;;;5064256;28;20558;-62
2022/01/26 10:23:13;;;;;;;50.23;21.17;;;3.50;99.90;;;;;;5065630;28;20472;-62
2022/01/26 10:25:43;;;;;;;54.13;22.60;;;3.60;99.90;;;;;;5065264;28;20489;-63
2022/01/26 10:28:15;;;;;;;49.73;21.30;;;3.60;99.90;;;;;;5065461;28;20488;-62
2022/01/26 10:30:47;;;;;;;52.90;24.37;;;3.60;99.90;;;;;;5064000;28;20467;-64
2022/01/26 10:33:17;;;;;;;53.17;23.73;;;3.60;99.90;;;;;;5065098;28;20477;-62
2022/01/26 10:35:46;;;;;;;55.50;23.87;;;3.60;99.90;;;;;;5065063;28;20490;-62
2022/01/26 10:38:15;;;;;;;59.37;24.97;;;3.50;99.90;;;;;;5065270;28;20561;-63
2022/01/26 10:40:44;;;;;;;59.70;24.43;;;3.50;99.90;;;;;;5063698;28;20491;-62
2022/01/26 10:43:14;;;;;;;55.83;23.17;;;3.50;99.90;;;;;;5064808;28;20484;-63
2022/01/26 10:45:58;;;;;;;56.83;23.10;;;3.50;99.90;;;;;;5064893;28;20475;-63
2022/01/26 10:48:32;;;;;;;62.73;24.70;;;3.50;99.90;;;;;;5065154;28;20509;-62
2022/01/26 10:51:31;;;;;;;59.07;23.80;;;3.50;99.90;;;;;;5063478;28;20890;-63
2022/01/26 10:54:10;;;;;;;57.07;22.70;;;3.50;99.90;;;;;;5065204;28;20567;-62
2022/01/26 10:56:40;;;;;;;61.40;22.80;;;3.50;99.90;;;;;;5064113;28;20500;-62
2022/01/26 10:59:09;;;;;;;51.43;22.90;;;3.50;99.90;;;;;;5063599;28;20484;-62
2022/01/26 11:01:38;;;;;;;60.37;24.23;;;3.50;99.90;;;;;;5064675;28;20569;-62
2022/01/26 11:04:08;;;;;;;66.27;31.13;;;3.50;99.90;;;;;;5064996;28;20604;-63
2022/01/26 11:06:37;;;;;;;63.47;26.60;;;3.50;99.90;;;;;;5065010;28;20476;-62
2022/01/26 11:09:11;;;;;;;58.97;25.37;;;3.60;99.90;;;;;;5064006;28;21133;-62
2022/01/26 11:11:41;;;;;;;59.93;25.43;;;3.50;99.90;;;;;;5064466;28;20563;-63
2022/01/26 11:14:21;;;;;;;56.83;25.20;;;3.60;99.90;;;;;;5064962;28;20987;-63
2022/01/26 11:16:54;;;;;;;60.33;23.70;;;3.60;99.90;;;;;;5065320;28;20979;-62
2022/01/26 11:19:23;;;;;;;61.70;24.90;;;3.60;99.90;;;;;;5064073;28;20472;-63
2022/01/26 11:21:51;;;;;;;57.77;24.83;;;3.60;99.90;;;;;;5051161;28;21051;-62
2022/01/26 11:24:44;;;;;;;60.97;24.83;;;3.60;99.90;;;;;;5066588;28;20512;-62
2022/01/26 11:27:13;;;;;;;59.83;24.30;;;3.60;99.90;;;;;;5054862;28;20481;-62
2022/01/26 11:29:47;;;;;;;61.10;25.07;;;3.60;99.90;;;;;;5059349;28;21084;-64
2022/01/26 11:32:21;;;;;;;56.30;24.00;;;3.60;99.90;;;;;;5061836;28;20512;-62
2022/01/26 11:34:52;;;;;;;62.80;24.07;;;3.60;99.90;;;;;;5060972;28;20505;-62
2022/01/26 11:37:28;;;;;;;64.27;25.13;;;3.60;99.90;;;;;;5059569;28;20462;-62
2022/01/26 11:45:36;;;;;;;60.57;24.70;;;3.60;99.90;;;;;;5068865;28;20468;-63
2022/01/26 11:48:09;;;;;;;68.10;26.33;;;3.60;99.90;;;;;;5068515;28;20474;-62
2022/01/26 11:50:42;;;;;;;62.83;25.70;;;3.60;99.90;;;;;;5067482;28;20477;-62
2022/01/26 11:53:12;;;;;;;68.27;26.40;;;3.60;99.90;;;;;;5068984;28;20482;-62
2022/01/26 11:55:44;;;;;;;68.23;25.73;;;3.60;99.90;;;;;;5069247;28;21040;-61
2022/01/26 11:58:15;;;;;;;70.83;26.53;;;3.60;99.90;;;;;;5066530;28;20487;-63
2022/01/26 12:00:55;;;;;;;66.60;25.80;;;3.60;99.90;;;;;;5064266;28;20480;-62
2022/01/26 12:03:29;;;;;;;65.37;25.43;;;3.70;99.90;;;;;;5072162;28;20518;-62
2022/01/26 12:05:58;;;;;;;62.90;26.30;;;3.70;99.90;;;;;;5069867;28;20519;-62
2022/01/26 12:08:35;;;;;;;70.03;27.30;;;3.70;99.90;;;;;;5066998;28;20480;-62
2022/01/26 12:11:06;;;;;;;74.83;26.77;;;3.70;99.90;;;;;;5066705;28;21070;-62
2022/01/26 12:13:37;;;;;;;72.37;27.60;;;3.70;99.90;;;;;;5066373;28;21080;-62
2022/01/26 12:16:13;;;;;;;59.93;24.40;;;3.70;99.90;;;;;;5065272;28;21047;-62
2022/01/26 12:18:50;;;;;;;69.10;25.90;;;3.70;99.90;;;;;;5066169;28;20493;-63
2022/01/26 12:35:41;;;;;;;64.33;26.83;;;3.70;99.90;;;;;;5064456;28;20885;-64
2022/01/26 12:38:16;;;;;;;70.20;25.07;;;3.60;99.90;;;;;;5065964;28;20560;-64
2022/01/26 12:43:36;;;;;;;68.43;25.27;;;3.60;99.90;;;;;;5065751;28;21005;-65
2022/01/26 12:46:06;;;;;;;65.37;26.20;;;3.60;99.90;;;;;;5064346;28;20513;-65
2022/01/26 12:48:39;;;;;;;66.63;27.30;;;3.70;99.90;;;;;;5065768;28;20559;-65
2022/01/26 12:51:08;;;;;;;62.97;24.73;;;3.70;99.90;;;;;;5065730;28;20851;-64
2022/01/26 12:53:38;;;;;;;65.43;25.83;;;3.70;99.90;;;;;;5065318;28;20484;-66
2022/01/26 12:56:08;;;;;;;72.87;27.17;;;3.70;99.90;;;;;;5064173;28;20533;-64
2022/01/26 12:58:40;;;;;;;69.50;25.93;;;3.70;99.90;;;;;;5065695;28;20482;-64
2022/01/26 13:01:11;;;;;;;69.43;26.10;;;3.70;99.90;;;;;;5068076;28;20466;-65
2022/01/26 13:03:42;;;;;;;72.43;26.70;;;3.70;99.90;;;;;;5067972;28;20488;-65
2022/01/26 13:06:14;;;;;;;69.10;25.17;;;3.80;99.90;;;;;;5066415;28;20995;-65
2022/01/26 13:08:43;;;;;;;69.03;26.13;;;3.80;99.90;;;;;;5066841;28;20494;-64
2022/01/26 13:11:12;;;;;;;68.07;25.37;;;3.70;99.90;;;;;;5067650;28;20567;-64
2022/01/26 13:13:41;;;;;;;69.27;25.97;;;3.70;99.90;;;;;;5070108;28;21021;-64
2022/01/26 13:16:18;;;;;;;66.13;25.20;;;3.70;99.90;;;;;;5072211;28;20470;-64
2022/01/26 13:19:14;;;;;;;66.60;25.57;;;3.70;99.90;;;;;;5071465;28;20465;-64
2022/01/26 13:27:19;;;;;;;61.07;25.40;;;3.80;99.90;;;;;;5061623;28;20978;-64
2022/01/26 13:30:00;;;;;;;64.43;24.67;;;3.80;99.90;;;;;;5071566;28;20494;-64
2022/01/26 13:33:05;;;;;;;64.73;24.73;;;3.80;99.90;;;;;;5071708;28;20569;-64
2022/01/26 13:35:45;;;;;;;66.60;24.47;;;3.80;99.90;;;;;;5056756;28;20487;-64
2022/01/26 13:38:26;;;;;;;63.17;25.03;;;3.80;99.90;;;;;;5051515;28;20508;-64
2022/01/26 13:41:04;;;;;;;69.23;26.30;;;3.70;99.90;;;;;;5042385;28;20541;-64
2022/01/26 13:47:02;;;;;;;68.13;25.53;;;3.80;99.90;;;;;;5008014;28;20550;-64
2022/01/26 13:49:43;;;;;;;67.13;26.53;;;3.80;99.90;;;;;;5009191;28;20507;-65
2022/01/26 14:00:25;;;;;;;65.90;27.97;;;3.80;99.90;;;;;;5054490;28;20465;-64
2022/01/26 14:02:58;;;;;;;64.90;26.37;;;3.80;99.90;;;;;;5071434;28;21010;-64
2022/01/26 14:05:27;;;;;;;72.83;27.17;;;3.80;99.90;;;;;;5071485;28;20551;-64
2022/01/26 14:07:56;;;;;;;73.97;27.93;;;3.80;99.90;;;;;;5063544;28;20460;-64
2022/01/26 14:10:25;;;;;;;69.90;27.83;;;3.80;99.90;;;;;;5051098;28;20464;-64
2022/01/26 14:12:53;;;;;;;67.70;26.27;;;3.80;99.90;;;;;;5052604;28;20531;-65
2022/01/26 14:15:26;;;;;;;65.80;26.73;;;3.90;99.90;;;;;;5056622;28;20472;-64
2022/01/26 14:18:05;;;;;;;74.87;29.27;;;3.80;99.90;;;;;;5044819;28;20503;-65
2022/01/26 14:20:48;;;;;;;73.87;28.33;;;3.90;99.90;;;;;;5070512;28;20484;-65
2022/01/26 14:23:43;;;;;;;73.30;29.20;;;3.80;99.90;;;;;;5066048;28;20486;-64
2022/01/26 14:26:13;;;;;;;66.83;27.33;;;3.90;99.90;;;;;;5050868;28;20500;-64
2022/01/26 14:28:41;;;;;;;74.63;33.30;;;3.90;99.90;;;;;;5050544;28;20851;-64
2022/01/26 14:31:28;;;;;;;71.27;30.63;;;3.90;99.90;;;;;;5038839;28;20477;-64
2022/01/26 14:36:50;;;;;;;67.83;27.27;;;3.90;99.90;;;;;;5046566;28;20508;-64
2022/01/26 14:39:50;;;;;;;70.77;27.57;;;3.90;99.90;;;;;;5053466;28;20507;-64
2022/01/26 15:00:00;;;;;;;72.30;28.50;;;3.90;99.90;;;;;;5048988;28;21035;-64
2022/01/26 15:30:14;;;;;;;75.33;29.00;;;3.90;99.90;;;;;;5062598;28;21112;-62
2022/01/26 15:40:02;;;;;;;72.43;28.73;;;3.90;99.90;;;;;;5064855;28;20504;-62
2022/01/26 15:44:23;;;;;;;72.17;28.33;;;3.90;99.90;;;;;;5072277;28;20487;-62
2022/01/26 15:50:24;;;;;;;73.23;28.20;;;4.00;99.90;;;;;;5036962;28;20806;-62